createdAt,value
2018-02-07T04:00:41.464Z,35.89
2018-02-07T04:01:41.438Z,35.88
2018-02-07T04:04:25.418Z,37.29
2018-02-07T04:05:25.717Z,36.43
2018-02-07T04:08:10.065Z,35.70
2018-02-07T04:09:10.065Z,35.23
2018-02-07T04:11:54.100Z,35.56
2018-02-07T04:12:54.070Z,36.24
2018-02-07T04:15:38.464Z,35.89
2018-02-07T04:16:38.810Z,35.86
2018-02-07T04:19:23.147Z,35.12
2018-02-07T04:20:23.085Z,34.97
2018-02-07T04:23:06.537Z,34.23
2018-02-07T04:24:06.089Z,34.69
2018-02-07T04:26:50.458Z,34.67
2018-02-07T04:27:50.421Z,33.36
2018-02-07T04:30:33.799Z,34.92
2018-02-07T04:31:34.189Z,35.47
2018-02-07T04:34:18.156Z,34.50
2018-02-07T04:35:18.481Z,33.58
2018-02-07T04:38:01.919Z,34.98
2018-02-07T04:39:01.816Z,36.04
2018-02-07T04:41:46.310Z,34.44
2018-02-07T04:42:46.223Z,33.01
2018-02-07T04:43:46.204Z,33.35
2018-02-07T04:44:46.156Z,33.09
2018-02-07T04:45:46.133Z,33.67
2018-02-07T04:46:46.145Z,33.74
2018-02-07T04:47:45.762Z,33.02
2018-02-07T04:48:45.729Z,32.95
2018-02-07T04:49:45.716Z,32.44
2018-02-07T04:50:45.704Z,33.28
2018-02-07T04:51:45.695Z,33.23
2018-02-07T04:52:45.679Z,33.24
2018-02-07T04:53:45.686Z,33.31
2018-02-07T04:54:45.675Z,33.06
2018-02-07T04:55:46.124Z,32.91
2018-02-07T04:56:45.936Z,33.72
2018-02-07T04:57:45.643Z,33.10
2018-02-07T04:58:46.054Z,34.00
2018-02-07T04:59:45.954Z,33.41
2018-02-07T05:00:45.979Z,33.48
2018-02-07T05:01:45.922Z,32.39
2018-02-07T05:02:46.011Z,32.24
2018-02-07T05:03:45.967Z,33.24
2018-02-07T05:04:45.909Z,33.34
2018-02-07T05:05:45.941Z,32.83
2018-02-07T05:06:45.523Z,33.69
2018-02-07T05:07:45.510Z,33.17
2018-02-07T05:08:45.512Z,32.52
2018-02-07T05:09:45.489Z,33.54
2018-02-07T05:10:45.475Z,33.54
2018-02-07T05:11:45.464Z,32.00
2018-02-07T05:12:45.457Z,31.84
2018-02-07T05:13:45.447Z,32.84
2018-02-07T05:14:45.442Z,32.67
2018-02-07T05:15:45.424Z,32.45
2018-02-07T05:16:45.440Z,33.03
2018-02-07T05:17:45.409Z,33.06
2018-02-07T05:18:45.399Z,32.56
2018-02-07T05:19:45.383Z,32.06
2018-02-07T05:19:57.375Z,1.28
2018-02-07T05:21:45.360Z,32.99
2018-02-07T05:22:45.351Z,32.28
2018-02-07T05:23:45.337Z,31.88
2018-02-07T05:24:45.330Z,32.38
2018-02-07T05:25:45.319Z,33.32
2018-02-07T05:26:45.299Z,32.74
2018-02-07T05:27:45.294Z,32.39
2018-02-07T05:28:45.274Z,33.04
2018-02-07T05:29:45.280Z,33.15
2018-02-07T05:30:45.258Z,33.08
2018-02-07T05:31:45.251Z,33.27
2018-02-07T05:32:45.247Z,32.83
2018-02-07T05:33:45.220Z,32.90
2018-02-07T05:34:45.236Z,33.37
2018-02-07T05:35:45.206Z,33.49
2018-02-07T05:36:45.196Z,32.28
2018-02-07T05:37:45.191Z,32.33
2018-02-07T05:38:45.174Z,33.22
2018-02-07T05:39:45.174Z,33.22
2018-02-07T05:40:45.153Z,33.31
2018-02-07T05:41:45.142Z,32.41
2018-02-07T05:42:45.132Z,32.72
2018-02-07T05:43:45.121Z,32.58
2018-02-07T05:44:45.107Z,32.49
2018-02-07T05:45:45.094Z,32.64
2018-02-07T05:46:45.085Z,32.41
2018-02-07T05:47:45.071Z,32.19
2018-02-07T05:48:45.061Z,32.48
2018-02-07T05:49:45.051Z,31.40
2018-02-07T05:50:45.046Z,31.92
2018-02-07T05:51:45.032Z,33.06
2018-02-07T05:52:45.009Z,33.71
2018-02-07T05:53:45.027Z,32.16
2018-02-07T05:54:45.008Z,33.32
2018-02-07T05:55:44.979Z,37.98
2018-02-07T05:56:44.988Z,40.30
2018-02-07T05:57:44.987Z,42.16
2018-02-07T05:58:44.959Z,38.53
2018-02-07T05:59:44.946Z,33.80
2018-02-07T06:00:44.941Z,33.48
2018-02-07T06:01:44.912Z,33.90
2018-02-07T06:02:44.909Z,32.74
2018-02-07T06:03:44.893Z,33.28
2018-02-07T06:04:44.883Z,34.02
2018-02-07T06:05:44.876Z,34.03
2018-02-07T06:06:44.863Z,30.75
2018-02-07T06:07:44.853Z,31.64
2018-02-07T06:08:44.845Z,30.78
2018-02-07T06:09:44.828Z,31.38
2018-02-07T06:10:44.825Z,32.20
2018-02-07T06:11:44.817Z,31.83
2018-02-07T06:12:44.799Z,32.01
2018-02-07T06:13:44.787Z,32.27
2018-02-07T06:14:44.775Z,31.91
2018-02-07T06:15:44.768Z,31.98
2018-02-07T06:16:44.753Z,32.50
2018-02-07T06:17:44.744Z,32.20
2018-02-07T06:18:44.725Z,32.06
2018-02-07T06:19:44.716Z,32.33
2018-02-07T06:20:44.718Z,32.36
2018-02-07T06:21:44.702Z,32.97
2018-02-07T06:22:44.701Z,32.52
2018-02-07T06:23:44.668Z,32.64
2018-02-07T06:24:44.677Z,32.81
2018-02-07T06:25:44.673Z,31.97
2018-02-07T06:26:44.645Z,32.31
2018-02-07T06:27:44.643Z,32.87
2018-02-07T06:28:44.661Z,32.64
2018-02-07T06:29:44.609Z,32.51
2018-02-07T06:30:44.620Z,32.04
2018-02-07T06:31:44.590Z,33.16
2018-02-07T06:32:44.586Z,33.22
2018-02-07T06:33:44.571Z,32.25
2018-02-07T06:34:44.562Z,33.22
2018-02-07T06:35:44.557Z,33.96
2018-02-07T06:36:44.554Z,33.76
2018-02-07T06:37:44.528Z,34.35
2018-02-07T06:38:44.520Z,33.86
2018-02-07T06:39:44.503Z,32.51
2018-02-07T06:40:44.504Z,33.32
2018-02-07T06:41:44.487Z,31.80
2018-02-07T06:42:44.485Z,32.23
2018-02-07T06:43:44.471Z,32.87
2018-02-07T06:44:44.463Z,33.47
2018-02-07T06:45:44.459Z,33.11
2018-02-07T06:46:44.421Z,33.40
2018-02-07T06:47:44.435Z,33.18
2018-02-07T06:48:44.411Z,35.23
2018-02-07T06:49:44.403Z,36.84
2018-02-07T06:50:44.402Z,32.49
2018-02-07T06:51:44.414Z,33.55
2018-02-07T06:52:44.368Z,33.04
2018-02-07T06:53:44.601Z,33.15
2018-02-07T06:54:44.358Z,33.20
2018-02-07T06:55:44.334Z,32.98
2018-02-07T06:56:44.326Z,33.72
2018-02-07T06:57:44.305Z,33.71
2018-02-07T06:58:44.303Z,33.45
2018-02-07T06:59:44.299Z,33.17
2018-02-07T07:00:44.294Z,34.41
2018-02-07T07:01:44.280Z,34.10
2018-02-07T07:02:44.249Z,33.90
2018-02-07T07:03:44.262Z,34.60
2018-02-07T07:04:44.221Z,34.97
2018-02-07T07:05:44.226Z,34.22
2018-02-07T07:06:44.228Z,34.16
2018-02-07T07:07:44.196Z,34.69
2018-02-07T07:08:44.191Z,34.54
2018-02-07T07:09:44.173Z,35.46
2018-02-07T07:10:44.177Z,36.43
2018-02-07T07:11:44.154Z,35.58
2018-02-07T07:12:44.135Z,34.99
2018-02-07T07:13:44.129Z,35.17
2018-02-07T07:14:44.117Z,34.86
2018-02-07T07:15:44.110Z,35.11
2018-02-07T07:16:44.092Z,34.56
2018-02-07T07:17:44.104Z,34.54
2018-02-07T07:18:44.084Z,34.63
2018-02-07T07:19:44.055Z,34.29
2018-02-07T07:20:44.051Z,34.76
2018-02-07T07:21:44.046Z,34.17
2018-02-07T07:22:44.035Z,34.48
2018-02-07T07:23:44.042Z,35.76
2018-02-07T07:24:44.009Z,35.23
2018-02-07T07:25:44.002Z,35.32
2018-02-07T07:26:43.991Z,36.33
2018-02-07T07:27:43.997Z,35.40
2018-02-07T07:28:43.971Z,35.54
2018-02-07T07:29:43.964Z,36.21
2018-02-07T07:30:43.970Z,34.83
2018-02-07T07:31:43.936Z,34.47
2018-02-07T07:32:43.922Z,35.12
2018-02-07T07:33:43.913Z,36.04
2018-02-07T07:34:43.901Z,35.92
2018-02-07T07:35:43.878Z,35.45
2018-02-07T07:36:43.893Z,34.66
2018-02-07T07:37:43.874Z,34.84
2018-02-07T07:38:43.861Z,34.92
2018-02-07T07:39:43.851Z,34.25
2018-02-07T07:40:43.836Z,35.10
2018-02-07T07:41:43.835Z,36.10
2018-02-07T07:42:43.811Z,35.62
2018-02-07T07:43:43.798Z,35.41
2018-02-07T07:44:43.791Z,35.48
2018-02-07T07:45:43.789Z,35.11
2018-02-07T07:46:43.766Z,34.76
2018-02-07T07:47:43.776Z,35.66
2018-02-07T07:48:43.749Z,35.22
2018-02-07T07:49:43.752Z,35.09
2018-02-07T07:50:43.728Z,34.24
2018-02-07T07:51:43.716Z,34.99
2018-02-07T07:52:43.700Z,36.22
2018-02-07T07:53:43.711Z,35.70
2018-02-07T07:54:43.671Z,34.70
2018-02-07T07:55:43.666Z,36.07
2018-02-07T07:56:43.657Z,35.33
2018-02-07T07:57:43.664Z,33.21
2018-02-07T07:58:43.646Z,33.58
2018-02-07T07:59:43.632Z,35.02
2018-02-07T08:00:43.616Z,34.26
2018-02-07T08:01:43.599Z,35.30
2018-02-07T08:02:43.602Z,35.88
2018-02-07T08:03:43.586Z,34.84
2018-02-07T08:04:43.587Z,34.63
2018-02-07T08:05:43.570Z,35.48
2018-02-07T08:06:43.557Z,35.34
2018-02-07T08:07:43.540Z,35.22
2018-02-07T08:08:43.528Z,35.57
2018-02-07T08:09:43.533Z,35.03
2018-02-07T08:10:43.522Z,35.66
2018-02-07T08:11:43.503Z,36.15
2018-02-07T08:12:43.489Z,35.51
2018-02-07T08:13:43.471Z,35.50
2018-02-07T08:14:43.466Z,35.76
2018-02-07T08:15:43.474Z,35.22
2018-02-07T08:16:43.460Z,36.46
2018-02-07T08:17:43.434Z,35.76
2018-02-07T08:18:43.432Z,35.12
2018-02-07T08:19:43.415Z,35.06
2018-02-07T08:20:43.401Z,35.48
2018-02-07T08:21:43.389Z,36.38
2018-02-07T08:22:43.402Z,36.00
2018-02-07T08:23:43.367Z,34.88
2018-02-07T08:24:43.360Z,36.22
2018-02-07T08:25:43.348Z,35.51
2018-02-07T08:26:43.357Z,34.95
2018-02-07T08:27:43.339Z,35.09
2018-02-07T08:28:43.321Z,35.11
2018-02-07T08:29:43.324Z,34.39
2018-02-07T08:30:43.307Z,35.07
2018-02-07T08:31:43.285Z,35.31
2018-02-07T08:32:43.282Z,36.18
2018-02-07T08:33:43.262Z,36.78
2018-02-07T08:34:43.262Z,35.61
2018-02-07T08:35:43.248Z,35.49
2018-02-07T08:36:43.236Z,35.53
2018-02-07T08:37:43.235Z,36.54
2018-02-07T08:38:43.220Z,36.82
2018-02-07T08:39:43.211Z,36.43
2018-02-07T08:40:43.191Z,36.78
2018-02-07T08:41:43.185Z,36.96
2018-02-07T08:42:43.183Z,35.85
2018-02-07T08:43:43.184Z,36.18
2018-02-07T08:44:43.153Z,36.08
2018-02-07T08:45:43.154Z,35.93
2018-02-07T08:46:43.136Z,35.89
2018-02-07T08:47:43.118Z,35.89
2018-02-07T08:48:43.115Z,35.87
2018-02-07T08:49:43.103Z,36.41
2018-02-07T08:50:43.092Z,36.08
2018-02-07T08:51:43.086Z,35.91
2018-02-07T08:52:43.082Z,36.02
2018-02-07T08:53:43.062Z,37.85
2018-02-07T08:54:43.065Z,37.90
2018-02-07T08:55:43.041Z,37.97
2018-02-07T08:56:43.033Z,37.57
2018-02-07T08:57:43.041Z,38.24
2018-02-07T08:58:43.028Z,37.73
2018-02-07T08:59:42.996Z,37.32
2018-02-07T09:00:43.005Z,37.39
2018-02-07T09:01:42.981Z,37.61
2018-02-07T09:02:42.968Z,37.31
2018-02-07T09:03:42.966Z,36.98
2018-02-07T09:04:42.952Z,37.36
2018-02-07T09:05:42.946Z,38.68
2018-02-07T09:06:42.930Z,37.94
2018-02-07T09:07:42.923Z,36.99
2018-02-07T09:08:42.906Z,37.17
2018-02-07T09:09:42.917Z,37.37
2018-02-07T09:10:42.904Z,38.00
2018-02-07T09:11:42.881Z,38.58
2018-02-07T09:12:42.885Z,38.03
2018-02-07T09:13:42.852Z,37.68
2018-02-07T09:14:42.841Z,38.61
2018-02-07T09:15:42.846Z,38.96
2018-02-07T09:16:42.827Z,38.33
2018-02-07T09:17:42.825Z,37.57
2018-02-07T09:18:42.813Z,39.09
2018-02-07T09:19:42.804Z,38.50
2018-02-07T09:20:42.803Z,37.14
2018-02-07T09:21:42.809Z,38.04
2018-02-07T09:22:42.778Z,38.46
2018-02-07T09:23:42.764Z,39.47
2018-02-07T09:24:42.750Z,37.96
2018-02-07T09:25:42.737Z,37.40
2018-02-07T09:26:42.743Z,37.99
2018-02-07T09:27:42.721Z,38.50
2018-02-07T09:28:42.724Z,38.75
2018-02-07T09:29:42.724Z,38.14
2018-02-07T09:30:42.695Z,38.32
2018-02-07T09:31:42.686Z,37.48
2018-02-07T09:32:42.666Z,39.22
2018-02-07T09:33:42.670Z,38.65
2018-02-07T09:34:42.659Z,38.51
2018-02-07T09:35:42.638Z,39.40
2018-02-07T09:36:42.632Z,38.60
2018-02-07T09:37:42.619Z,38.94
2018-02-07T09:38:42.633Z,38.93
2018-02-07T09:39:42.624Z,39.04
2018-02-07T09:40:42.602Z,38.74
2018-02-07T09:41:42.587Z,38.64
2018-02-07T09:42:42.575Z,39.28
2018-02-07T09:43:42.565Z,39.40
2018-02-07T09:44:42.561Z,38.48
2018-02-07T09:45:42.563Z,39.32
2018-02-07T09:46:42.548Z,38.92
2018-02-07T09:47:42.523Z,38.72
2018-02-07T09:48:42.515Z,39.44
2018-02-07T09:49:42.510Z,40.15
2018-02-07T09:50:42.499Z,40.04
2018-02-07T09:51:42.498Z,38.91
2018-02-07T09:52:42.497Z,37.45
2018-02-07T09:53:42.469Z,38.34
2018-02-07T09:54:42.463Z,38.86
2018-02-07T09:55:42.466Z,37.80
2018-02-07T09:56:42.432Z,38.27
2018-02-07T09:57:42.450Z,38.95
2018-02-07T09:58:42.424Z,39.04
2018-02-07T09:59:42.421Z,38.30
2018-02-07T10:00:42.413Z,38.97
2018-02-07T10:01:42.404Z,39.18
2018-02-07T10:02:42.400Z,39.34
2018-02-07T10:03:42.370Z,39.13
2018-02-07T10:04:42.383Z,38.04
2018-02-07T10:05:42.378Z,38.40
2018-02-07T10:06:42.342Z,37.68
2018-02-07T10:07:42.337Z,37.38
2018-02-07T10:08:42.345Z,38.18
2018-02-07T10:09:42.315Z,38.29
2018-02-07T10:10:42.304Z,38.31
2018-02-07T10:11:42.311Z,39.18
2018-02-07T10:12:42.301Z,37.79
2018-02-07T10:13:42.282Z,37.42
2018-02-07T10:14:42.286Z,37.86
2018-02-07T10:15:42.264Z,37.73
2018-02-07T10:16:42.261Z,38.00
2018-02-07T10:17:42.241Z,38.58
2018-02-07T10:18:42.238Z,38.10
2018-02-07T10:19:42.243Z,37.96
2018-02-07T10:20:42.214Z,37.26
2018-02-07T10:21:42.214Z,38.25
2018-02-07T10:22:42.242Z,38.82
2018-02-07T10:23:42.235Z,38.70
2018-02-07T10:24:42.177Z,38.77
2018-02-07T10:25:42.176Z,38.47
2018-02-07T10:26:42.161Z,38.46
2018-02-07T10:27:42.157Z,40.40
2018-02-07T10:28:42.154Z,39.21
2018-02-07T10:29:42.142Z,40.26
2018-02-07T10:30:42.157Z,40.71
2018-02-07T10:31:42.116Z,40.28
2018-02-07T10:32:42.114Z,41.22
2018-02-07T10:33:42.110Z,40.77
2018-02-07T10:34:42.112Z,41.11
2018-02-07T10:35:42.093Z,41.07
2018-02-07T10:36:42.082Z,42.61
2018-02-07T10:37:42.081Z,42.32
2018-02-07T10:38:42.062Z,42.82
2018-02-07T10:39:42.079Z,42.42
2018-02-07T10:40:42.047Z,41.02
2018-02-07T10:41:42.038Z,41.98
2018-02-07T10:42:42.031Z,40.79
2018-02-07T10:43:42.984Z,42.31
2018-02-07T10:44:42.008Z,42.65
2018-02-07T10:45:42.003Z,42.17
2018-02-07T10:46:42.001Z,41.43
2018-02-07T10:47:41.995Z,41.14
2018-02-07T10:48:41.981Z,41.86
2018-02-07T10:49:41.977Z,41.40
2018-02-07T10:50:41.959Z,42.14
2018-02-07T10:51:41.949Z,44.97
2018-02-07T10:52:41.954Z,44.54
2018-02-07T10:53:41.970Z,42.96
2018-02-07T10:54:41.930Z,42.93
2018-02-07T10:55:41.916Z,43.86
2018-02-07T10:56:41.910Z,44.67
2018-02-07T10:57:41.921Z,42.50
2018-02-07T10:58:41.888Z,41.84
2018-02-07T10:59:41.899Z,41.59
2018-02-07T11:00:41.879Z,41.77
2018-02-07T11:01:41.869Z,42.60
2018-02-07T11:02:41.878Z,43.01
2018-02-07T11:03:41.849Z,43.16
2018-02-07T11:04:41.843Z,42.32
2018-02-07T11:05:41.825Z,43.63
2018-02-07T11:06:41.834Z,42.60
2018-02-07T11:07:41.812Z,42.35
2018-02-07T11:08:41.813Z,43.05
2018-02-07T11:09:41.817Z,42.92
2018-02-07T11:10:41.777Z,43.50
2018-02-07T11:11:41.786Z,43.54
2018-02-07T11:12:41.791Z,43.52
2018-02-07T11:13:41.790Z,43.46
2018-02-07T11:14:41.757Z,43.66
2018-02-07T11:15:41.742Z,42.88
2018-02-07T11:16:41.762Z,42.68
2018-02-07T11:17:41.732Z,42.88
2018-02-07T11:18:41.720Z,43.48
2018-02-07T11:19:41.719Z,43.24
2018-02-07T11:20:41.716Z,42.94
2018-02-07T11:21:41.709Z,42.39
2018-02-07T11:22:41.700Z,42.14
2018-02-07T11:23:41.703Z,43.36
2018-02-07T11:24:41.688Z,43.22
2018-02-07T11:25:41.660Z,42.43
2018-02-07T11:26:41.656Z,42.86
2018-02-07T11:27:41.635Z,42.76
2018-02-07T11:28:41.630Z,41.39
2018-02-07T11:29:41.639Z,42.03
2018-02-07T11:30:41.635Z,42.23
2018-02-07T11:31:41.608Z,43.04
2018-02-07T11:32:41.597Z,43.16
2018-02-07T11:33:41.600Z,42.42
2018-02-07T11:34:41.588Z,42.27
2018-02-07T11:35:41.573Z,42.95
2018-02-07T11:36:41.567Z,43.05
2018-02-07T11:37:41.559Z,43.56
2018-02-07T11:38:41.557Z,44.01
2018-02-07T11:39:41.545Z,43.79
2018-02-07T11:40:41.527Z,43.59
2018-02-07T11:41:41.521Z,43.59
2018-02-07T11:42:41.515Z,42.78
2018-02-07T11:43:41.503Z,43.52
2018-02-07T11:44:41.495Z,41.67
2018-02-07T11:45:41.499Z,41.39
2018-02-07T11:46:41.496Z,42.82
2018-02-07T11:47:41.471Z,41.31
2018-02-07T11:48:41.478Z,41.48
2018-02-07T11:49:41.473Z,41.23
2018-02-07T11:50:41.446Z,42.25
2018-02-07T11:51:41.443Z,41.29
2018-02-07T11:52:41.436Z,42.30
2018-02-07T11:53:41.416Z,41.92
2018-02-07T11:54:41.411Z,42.01
2018-02-07T11:55:41.406Z,41.66
2018-02-07T11:56:41.391Z,42.48
2018-02-07T11:57:41.393Z,42.54
2018-02-07T11:58:41.397Z,42.23
2018-02-07T11:59:41.376Z,43.27
2018-02-07T12:00:41.432Z,42.67
2018-02-07T12:01:41.353Z,41.77
2018-02-07T12:02:41.359Z,43.50
2018-02-07T12:03:41.340Z,43.02
2018-02-07T12:04:41.343Z,43.02
2018-02-07T12:05:41.311Z,44.32
2018-02-07T12:06:41.312Z,44.46
2018-02-07T12:07:41.322Z,43.68
2018-02-07T12:08:41.293Z,43.83
2018-02-07T12:09:41.311Z,43.78
2018-02-07T12:10:41.279Z,45.08
2018-02-07T12:11:41.279Z,44.08
2018-02-07T12:12:41.272Z,44.28
2018-02-07T12:13:41.270Z,44.70
2018-02-07T12:14:41.252Z,44.55
2018-02-07T12:15:41.271Z,44.79
2018-02-07T12:16:41.227Z,44.59
2018-02-07T12:17:41.223Z,44.07
2018-02-07T12:18:41.211Z,44.22
2018-02-07T12:19:41.206Z,45.20
2018-02-07T12:20:41.195Z,43.21
2018-02-07T12:21:41.216Z,43.95
2018-02-07T12:22:41.175Z,43.82
2018-02-07T12:23:41.173Z,43.61
2018-02-07T12:24:41.163Z,45.51
2018-02-07T12:25:41.151Z,46.19
2018-02-07T12:26:41.150Z,45.58
2018-02-07T12:27:41.150Z,46.12
2018-02-07T12:28:41.122Z,46.53
2018-02-07T12:29:41.120Z,46.46
2018-02-07T12:30:41.115Z,45.23
2018-02-07T12:31:41.211Z,46.24
2018-02-07T12:32:41.105Z,46.56
2018-02-07T12:33:41.079Z,47.59
2018-02-07T12:34:41.084Z,47.42
2018-02-07T12:35:41.060Z,46.95
2018-02-07T12:36:41.052Z,47.54
2018-02-07T12:37:41.049Z,47.35
2018-02-07T12:38:41.041Z,46.78
2018-02-07T12:39:41.032Z,46.50
2018-02-07T12:40:41.013Z,47.34
2018-02-07T12:41:41.020Z,48.80
2018-02-07T12:42:41.005Z,49.08
2018-02-07T12:43:40.996Z,47.58
2018-02-07T12:44:40.990Z,47.83
2018-02-07T12:45:40.975Z,49.00
2018-02-07T12:46:40.984Z,48.90
2018-02-07T12:47:40.973Z,49.60
2018-02-07T12:48:40.951Z,48.72
2018-02-07T12:49:40.952Z,48.80
2018-02-07T12:50:40.931Z,50.13
2018-02-07T12:51:40.927Z,50.01
2018-02-07T12:52:40.934Z,50.21
2018-02-07T12:53:40.920Z,49.61
2018-02-07T12:54:40.902Z,49.59
2018-02-07T12:55:40.883Z,51.24
2018-02-07T12:56:40.887Z,51.58
2018-02-07T12:57:40.879Z,50.54
2018-02-07T12:58:40.868Z,51.30
2018-02-07T12:59:40.865Z,51.08
2018-02-07T13:00:40.858Z,51.93
2018-02-07T13:01:40.845Z,51.63
2018-02-07T13:02:40.828Z,51.10
2018-02-07T13:03:40.819Z,50.25
2018-02-07T13:04:40.806Z,51.33
2018-02-07T13:05:40.822Z,49.90
2018-02-07T13:06:40.829Z,50.08
2018-02-07T13:07:40.784Z,50.58
2018-02-07T13:08:40.783Z,50.09
2018-02-07T13:09:40.773Z,49.49
2018-02-07T13:10:40.781Z,49.60
2018-02-07T13:11:40.757Z,51.26
2018-02-07T13:12:40.751Z,50.68
2018-02-07T13:13:40.735Z,51.40
2018-02-07T13:14:40.723Z,52.29
2018-02-07T13:15:40.713Z,53.22
2018-02-07T13:16:40.716Z,51.13
2018-02-07T13:17:40.718Z,51.14
2018-02-07T13:18:40.701Z,52.90
2018-02-07T13:19:40.703Z,52.28
2018-02-07T13:20:40.678Z,52.81
2018-02-07T13:21:40.679Z,52.40
2018-02-07T13:22:40.657Z,52.91
2018-02-07T13:23:40.672Z,52.81
2018-02-07T13:24:40.652Z,52.58
2018-02-07T13:25:40.641Z,54.13
2018-02-07T13:26:40.628Z,53.48
2018-02-07T13:27:40.634Z,53.57
2018-02-07T13:28:40.649Z,54.40
2018-02-07T13:29:40.603Z,52.75
2018-02-07T13:30:40.588Z,53.73
2018-02-07T13:31:40.584Z,53.12
2018-02-07T13:32:40.588Z,55.02
2018-02-07T13:33:40.562Z,54.38
2018-02-07T13:34:40.575Z,54.60
2018-02-07T13:35:40.555Z,56.97
2018-02-07T13:36:40.540Z,55.45
2018-02-07T13:37:40.537Z,58.46
2018-02-07T13:38:40.534Z,57.06
2018-02-07T13:39:40.526Z,59.26
2018-02-07T13:40:40.514Z,59.72
2018-02-07T13:41:40.524Z,60.30
2018-02-07T13:42:40.492Z,60.71
2018-02-07T13:43:40.494Z,60.23
2018-02-07T13:44:40.490Z,60.22
2018-02-07T13:45:40.468Z,60.17
2018-02-07T13:46:40.453Z,60.87
2018-02-07T13:47:40.470Z,59.56
2018-02-07T13:48:40.439Z,59.74
2018-02-07T13:49:40.434Z,60.26
2018-02-07T13:50:40.425Z,62.98
2018-02-07T13:51:40.419Z,62.50
2018-02-07T13:52:40.404Z,62.75
2018-02-07T13:53:40.405Z,62.51
2018-02-07T13:54:40.389Z,60.96
2018-02-07T13:55:40.386Z,60.82
2018-02-07T13:56:40.378Z,60.73
2018-02-07T13:57:40.383Z,60.05
2018-02-07T13:58:40.364Z,61.95
2018-02-07T13:59:40.352Z,62.04
2018-02-07T14:00:40.354Z,61.42
2018-02-07T14:01:40.326Z,62.84
2018-02-07T14:02:40.327Z,63.32
2018-02-07T14:03:40.312Z,63.42
2018-02-07T14:04:40.310Z,61.82
2018-02-07T14:05:40.325Z,62.05
2018-02-07T14:06:40.296Z,62.40
2018-02-07T14:07:40.290Z,62.82
2018-02-07T14:08:40.266Z,63.06
2018-02-07T14:09:40.271Z,63.28
2018-02-07T14:10:40.251Z,62.06
2018-02-07T14:11:40.244Z,60.34
2018-02-07T14:12:40.235Z,62.62
2018-02-07T14:13:40.227Z,61.70
2018-02-07T14:14:40.210Z,62.54
2018-02-07T14:15:40.198Z,61.96
2018-02-07T14:16:40.193Z,61.20
2018-02-07T14:17:40.214Z,62.20
2018-02-07T14:18:40.182Z,60.37
2018-02-07T14:19:40.180Z,63.24
2018-02-07T14:20:40.166Z,63.18
2018-02-07T14:21:40.156Z,62.20
2018-02-07T14:22:40.155Z,62.20
2018-02-07T14:23:40.143Z,61.46
2018-02-07T14:24:40.121Z,61.04
2018-02-07T14:25:40.120Z,63.13
2018-02-07T14:26:40.115Z,63.28
2018-02-07T14:27:40.092Z,63.49
2018-02-07T14:28:40.092Z,62.38
2018-02-07T14:29:40.079Z,64.43
2018-02-07T14:30:40.066Z,63.82
2018-02-07T14:31:40.050Z,61.87
2018-02-07T14:32:40.100Z,63.22
2018-02-07T14:33:40.042Z,61.55
2018-02-07T14:34:40.044Z,64.05
2018-02-07T14:35:40.028Z,62.47
2018-02-07T14:36:40.028Z,61.34
2018-02-07T14:37:39.997Z,64.06
2018-02-07T14:38:39.996Z,62.39
2018-02-07T14:39:39.983Z,63.30
2018-02-07T14:40:39.974Z,64.05
2018-02-07T14:41:39.958Z,62.48
2018-02-07T14:42:39.976Z,60.61
2018-02-07T14:43:39.949Z,61.17
2018-02-07T14:44:39.948Z,62.32
2018-02-07T14:45:39.983Z,63.42
2018-02-07T14:46:39.939Z,61.75
2018-02-07T14:47:39.900Z,62.59
2018-02-07T14:48:39.900Z,62.29
2018-02-07T14:49:39.891Z,63.59
2018-02-07T14:50:39.893Z,64.24
2018-02-07T14:51:39.864Z,63.44
2018-02-07T14:52:39.870Z,61.72
2018-02-07T14:53:39.873Z,61.51
2018-02-07T14:54:39.840Z,63.34
2018-02-07T14:55:39.827Z,61.92
2018-02-07T14:56:39.818Z,60.71
2018-02-07T14:57:39.815Z,61.51
2018-02-07T14:58:39.799Z,61.00
2018-02-07T14:59:39.799Z,61.43
2018-02-07T15:00:39.775Z,60.13
2018-02-07T15:01:39.780Z,59.58
2018-02-07T15:02:39.752Z,59.59
2018-02-07T15:03:39.754Z,58.22
2018-02-07T15:04:39.738Z,58.23
2018-02-07T15:05:39.726Z,59.67
2018-02-07T15:06:39.729Z,59.14
2018-02-07T15:07:39.706Z,59.93
2018-02-07T15:08:39.703Z,59.78
2018-02-07T15:09:39.693Z,60.37
2018-02-07T15:10:39.693Z,58.87
2018-02-07T15:11:39.687Z,58.91
2018-02-07T15:12:39.674Z,58.26
2018-02-07T15:13:39.655Z,58.06
2018-02-07T15:14:39.644Z,56.96
2018-02-07T15:15:39.632Z,56.33
2018-02-07T15:16:39.626Z,55.27
2018-02-07T15:17:39.622Z,56.32
2018-02-07T15:18:39.623Z,56.92
2018-02-07T15:19:39.589Z,55.40
2018-02-07T15:20:39.584Z,57.90
2018-02-07T15:21:39.580Z,57.20
2018-02-07T15:22:39.564Z,57.28
2018-02-07T15:23:39.545Z,56.84
2018-02-07T15:24:39.542Z,55.79
2018-02-07T15:25:39.533Z,57.06
2018-02-07T15:26:39.537Z,57.12
2018-02-07T15:27:39.513Z,56.70
2018-02-07T15:28:39.494Z,57.38
2018-02-07T15:29:39.493Z,59.55
2018-02-07T15:30:39.493Z,57.76
2018-02-07T15:31:39.470Z,57.87
2018-02-07T15:32:39.478Z,58.30
2018-02-07T15:33:39.458Z,57.56
2018-02-07T15:34:39.458Z,57.96
2018-02-07T15:35:39.443Z,58.70
2018-02-07T15:36:39.423Z,61.28
2018-02-07T15:37:39.419Z,59.68
2018-02-07T15:38:39.400Z,58.58
2018-02-07T15:39:39.396Z,57.41
2018-02-07T15:40:39.394Z,59.48
2018-02-07T15:41:39.362Z,59.16
2018-02-07T15:42:39.366Z,60.36
2018-02-07T15:43:39.375Z,59.42
2018-02-07T15:44:39.341Z,60.58
2018-02-07T15:45:39.330Z,59.84
2018-02-07T15:46:39.347Z,60.85
2018-02-07T15:47:39.322Z,59.56
2018-02-07T15:48:39.298Z,59.44
2018-02-07T15:49:39.294Z,59.70
2018-02-07T15:50:39.274Z,57.89
2018-02-07T15:51:39.270Z,59.40
2018-02-07T15:52:39.279Z,60.74
2018-02-07T15:53:39.243Z,61.15
2018-02-07T15:54:39.260Z,60.73
2018-02-07T15:55:39.223Z,62.21
2018-02-07T15:56:39.211Z,60.34
2018-02-07T15:57:39.253Z,60.30
2018-02-07T15:58:39.221Z,60.13
2018-02-07T15:59:39.183Z,60.50
2018-02-07T16:00:39.170Z,61.24
2018-02-07T16:01:39.165Z,62.12
2018-02-07T16:02:39.165Z,61.97
2018-02-07T16:03:39.162Z,62.15
2018-02-07T16:04:39.130Z,62.06
2018-02-07T16:05:39.127Z,62.67
2018-02-07T16:06:39.115Z,60.96
2018-02-07T16:07:39.122Z,60.29
2018-02-07T16:08:39.105Z,60.19
2018-02-07T16:09:39.078Z,61.41
2018-02-07T16:10:39.072Z,61.65
2018-02-07T16:11:39.109Z,62.02
2018-02-07T16:12:39.059Z,62.77
2018-02-07T16:13:39.081Z,63.38
2018-02-07T16:14:39.050Z,61.74
2018-02-07T16:15:39.016Z,60.71
2018-02-07T16:16:39.037Z,62.28
2018-02-07T16:17:39.008Z,61.96
2018-02-07T16:18:38.980Z,63.02
2018-02-07T16:19:38.977Z,62.78
2018-02-07T16:20:38.957Z,64.20
2018-02-07T16:21:38.973Z,63.62
2018-02-07T16:22:38.941Z,62.73
2018-02-07T16:23:38.932Z,65.63
2018-02-07T16:24:38.919Z,65.56
2018-02-07T16:25:38.925Z,64.52
2018-02-07T16:26:38.901Z,63.84
2018-02-07T16:27:38.892Z,65.56
2018-02-07T16:28:38.874Z,65.01
2018-02-07T16:29:38.868Z,66.56
2018-02-07T16:30:38.887Z,65.70
2018-02-07T16:31:38.852Z,65.13
2018-02-07T16:32:38.829Z,66.55
2018-02-07T16:33:38.824Z,66.47
2018-02-07T16:34:38.809Z,66.22
2018-02-07T16:35:38.794Z,66.61
2018-02-07T16:36:38.786Z,67.40
2018-02-07T16:37:38.786Z,65.20
2018-02-07T16:38:38.783Z,66.08
2018-02-07T16:39:38.748Z,65.30
2018-02-07T16:40:38.760Z,66.95
2018-02-07T16:41:38.754Z,65.82
2018-02-07T16:42:38.731Z,63.74
2018-02-07T16:43:38.713Z,65.44
2018-02-07T16:44:38.691Z,65.08
2018-02-07T16:45:38.697Z,64.74
2018-02-07T16:46:38.682Z,67.42
2018-02-07T16:47:38.667Z,66.20
2018-02-07T16:48:38.659Z,65.78
2018-02-07T16:49:38.637Z,66.35
2018-02-07T16:50:38.626Z,64.98
2018-02-07T16:51:38.617Z,64.24
2018-02-07T16:52:38.626Z,65.18
2018-02-07T16:53:38.610Z,65.80
2018-02-07T16:54:38.583Z,65.27
2018-02-07T16:55:38.581Z,67.11
2018-02-07T16:56:38.561Z,66.01
2018-02-07T16:57:38.569Z,64.75
2018-02-07T16:58:38.540Z,67.09
2018-02-07T16:59:38.542Z,66.36
2018-02-07T17:00:38.522Z,68.43
2018-02-07T17:01:38.510Z,67.47
2018-02-07T17:02:38.514Z,64.70
2018-02-07T17:03:38.484Z,66.31
2018-02-07T17:04:38.468Z,65.26
2018-02-07T17:05:38.463Z,64.78
2018-02-07T17:06:38.448Z,66.00
2018-02-07T17:07:38.443Z,66.23
2018-02-07T17:08:38.432Z,67.69
2018-02-07T17:09:38.418Z,67.61
2018-02-07T17:10:38.409Z,66.12
2018-02-07T17:11:38.391Z,64.34